Terminal Aerodrome Forecast
Issued by NWS

Home | Current Version | Previous Version | Text Only | Print | Product List | Glossary On
Versions: 1 2 3 4 5 6 7 8 9 10 11 12 13 14 15 16 17 18 19 20 21 22 23 24 25 26 27 28
000
FTUS46 KOTX 220018 AAA
TAFCOE
TAF AMD
KCOE 220018Z 2200/2224 20006KT P6SM SHRA SCT050 SCT110
     FM220200 17004KT P6SM FEW070
     FM220500 08004KT P6SM SKC
     FM221700 04005KT P6SM FEW060 SCT080=

USA.gov is the U.S. government's official web portal to all federal, state and local government web resources and services.